Weather at Oldenburg-Hatten Airfield

Public forecast

Using degrees Celsius for public forecast. Weather courtesy of forecast.io.

Closest aviation weather report (METAR) to Oldenburg-Hatten Airfield

Closest report is Bremen Airport, 17.2 nm (31.9 km) E.

2024/05/29 01:50 (retrieved 29 minutes ago)

EDDW 290150Z AUTO 17008KT 9999 -DZ OVC008 13/12 Q1011

Closest aviation forecast (TAF) to Oldenburg-Hatten Airfield

Forecast is more than 6 hours old.

Closest forecast is Leeuwarden Air Base, 92.4 nm (171.2 km) W.

2024/05/28 17:03 (retrieved 9 hours ago)

TAF EHLW 281649Z 2817/2905 19010KT CAVOK BECMG 2818/2820 SCT010 BKN015 BECMG 2820/2822 SCT006 BKN010 TEMPO 2821/2905 4000 RADZ